sensor_id;sensor_type;location;lat;lon;timestamp;P1;durP1;ratioP1;P2;durP2;ratioP2
69534;SDS011;56754;51.568;5.048;2022-09-27T00:00:58;3.40;;;0.50;;
69534;SDS011;56754;51.568;5.048;2022-09-27T00:03:24;3.03;;;0.30;;
69534;SDS011;56754;51.568;5.048;2022-09-27T00:05:59;4.27;;;0.60;;
69534;SDS011;56754;51.568;5.048;2022-09-27T00:08:36;4.35;;;0.47;;
69534;SDS011;56754;51.568;5.048;2022-09-27T00:11:05;3.47;;;0.60;;
69534;SDS011;56754;51.568;5.048;2022-09-27T00:13:32;2.88;;;0.40;;
69534;SDS011;56754;51.568;5.048;2022-09-27T00:15:58;3.13;;;0.43;;
69534;SDS011;56754;51.568;5.048;2022-09-27T00:18:24;2.20;;;0.40;;
69534;SDS011;56754;51.568;5.048;2022-09-27T00:20:50;1.95;;;0.40;;
69534;SDS011;56754;51.568;5.048;2022-09-27T00:23:15;2.80;;;0.30;;
69534;SDS011;56754;51.568;5.048;2022-09-27T00:25:40;1.80;;;0.27;;
69534;SDS011;56754;51.568;5.048;2022-09-27T00:28:06;2.57;;;0.40;;
69534;SDS011;56754;51.568;5.048;2022-09-27T00:30:31;2.73;;;0.40;;
69534;SDS011;56754;51.568;5.048;2022-09-27T00:32:56;3.63;;;0.50;;
69534;SDS011;56754;51.568;5.048;2022-09-27T00:35:22;1.63;;;0.20;;
69534;SDS011;56754;51.568;5.048;2022-09-27T00:37:47;4.33;;;0.40;;
69534;SDS011;56754;51.568;5.048;2022-09-27T00:40:13;3.23;;;0.43;;
69534;SDS011;56754;51.568;5.048;2022-09-27T00:42:39;2.13;;;0.22;;
69534;SDS011;56754;51.568;5.048;2022-09-27T00:45:05;1.70;;;0.30;;
69534;SDS011;56754;51.568;5.048;2022-09-27T00:47:45;2.78;;;0.43;;
69534;SDS011;56754;51.568;5.048;2022-09-27T00:52:53;2.10;;;0.30;;
69534;SDS011;56754;51.568;5.048;2022-09-27T00:55:27;4.20;;;0.52;;
69534;SDS011;56754;51.568;5.048;2022-09-27T00:58:00;2.35;;;0.30;;
69534;SDS011;56754;51.568;5.048;2022-09-27T01:00:27;2.35;;;0.25;;
69534;SDS011;56754;51.568;5.048;2022-09-27T01:02:52;2.50;;;0.60;;
69534;SDS011;56754;51.568;5.048;2022-09-27T01:05:20;1.63;;;0.40;;
69534;SDS011;56754;51.568;5.048;2022-09-27T01:07:48;2.95;;;0.32;;
69534;SDS011;56754;51.568;5.048;2022-09-27T01:10:13;2.03;;;0.20;;
69534;SDS011;56754;51.568;5.048;2022-09-27T01:12:57;2.33;;;0.30;;
69534;SDS011;56754;51.568;5.048;2022-09-27T01:15:38;1.30;;;0.27;;
69534;SDS011;56754;51.568;5.048;2022-09-27T01:18:29;2.05;;;0.30;;
69534;SDS011;56754;51.568;5.048;2022-09-27T01:35:05;3.17;;;0.20;;
69534;SDS011;56754;51.568;5.048;2022-09-27T01:37:50;2.10;;;0.30;;
69534;SDS011;56754;51.568;5.048;2022-09-27T01:40:43;2.30;;;0.30;;
69534;SDS011;56754;51.568;5.048;2022-09-27T01:43:12;2.20;;;0.20;;
69534;SDS011;56754;51.568;5.048;2022-09-27T01:45:55;1.88;;;0.20;;
69534;SDS011;56754;51.568;5.048;2022-09-27T01:48:30;1.67;;;0.20;;
69534;SDS011;56754;51.568;5.048;2022-09-27T01:51:08;2.47;;;0.30;;
69534;SDS011;56754;51.568;5.048;2022-09-27T01:53:41;1.88;;;0.20;;
69534;SDS011;56754;51.568;5.048;2022-09-27T01:56:14;3.37;;;0.30;;
69534;SDS011;56754;51.568;5.048;2022-09-27T01:58:45;2.65;;;0.25;;
69534;SDS011;56754;51.568;5.048;2022-09-27T02:01:15;2.42;;;0.20;;
69534;SDS011;56754;51.568;5.048;2022-09-27T02:03:44;1.25;;;0.30;;
69534;SDS011;56754;51.568;5.048;2022-09-27T02:06:23;3.72;;;0.30;;
69534;SDS011;56754;51.568;5.048;2022-09-27T02:09:26;2.77;;;0.20;;
69534;SDS011;56754;51.568;5.048;2022-09-27T02:11:47;2.15;;;0.20;;
69534;SDS011;56754;51.568;5.048;2022-09-27T02:14:18;2.65;;;0.30;;
69534;SDS011;56754;51.568;5.048;2022-09-27T02:16:52;3.22;;;0.20;;
69534;SDS011;56754;51.568;5.048;2022-09-27T02:22:31;2.37;;;0.30;;
69534;SDS011;56754;51.568;5.048;2022-09-27T02:25:22;2.22;;;0.20;;
69534;SDS011;56754;51.568;5.048;2022-09-27T02:30:50;2.58;;;0.30;;
69534;SDS011;56754;51.568;5.048;2022-09-27T02:33:17;2.23;;;0.20;;
69534;SDS011;56754;51.568;5.048;2022-09-27T02:35:46;3.58;;;0.20;;
69534;SDS011;56754;51.568;5.048;2022-09-27T02:38:12;1.90;;;0.30;;
69534;SDS011;56754;51.568;5.048;2022-09-27T02:40:44;3.00;;;0.20;;
69534;SDS011;56754;51.568;5.048;2022-09-27T02:43:10;2.93;;;0.27;;
69534;SDS011;56754;51.568;5.048;2022-09-27T02:56:53;3.10;;;0.30;;
69534;SDS011;56754;51.568;5.048;2022-09-27T03:00:08;1.98;;;0.20;;
69534;SDS011;56754;51.568;5.048;2022-09-27T03:05:25;3.08;;;0.20;;
69534;SDS011;56754;51.568;5.048;2022-09-27T03:07:53;4.45;;;0.35;;
69534;SDS011;56754;51.568;5.048;2022-09-27T03:10:20;1.37;;;0.17;;
69534;SDS011;56754;51.568;5.048;2022-09-27T03:12:50;2.47;;;0.23;;
69534;SDS011;56754;51.568;5.048;2022-09-27T03:15:15;3.75;;;0.40;;
69534;SDS011;56754;51.568;5.048;2022-09-27T03:17:40;3.40;;;0.77;;
69534;SDS011;56754;51.568;5.048;2022-09-27T03:20:06;2.03;;;0.30;;
69534;SDS011;56754;51.568;5.048;2022-09-27T03:22:32;2.75;;;0.30;;
69534;SDS011;56754;51.568;5.048;2022-09-27T03:24:57;1.40;;;0.20;;
69534;SDS011;56754;51.568;5.048;2022-09-27T03:27:23;3.67;;;0.40;;
69534;SDS011;56754;51.568;5.048;2022-09-27T03:29:48;2.30;;;0.30;;
69534;SDS011;56754;51.568;5.048;2022-09-27T03:32:14;2.70;;;0.30;;
69534;SDS011;56754;51.568;5.048;2022-09-27T03:34:39;2.77;;;0.43;;
69534;SDS011;56754;51.568;5.048;2022-09-27T03:37:04;2.90;;;0.20;;
69534;SDS011;56754;51.568;5.048;2022-09-27T03:39:29;2.43;;;0.27;;
69534;SDS011;56754;51.568;5.048;2022-09-27T03:41:55;2.47;;;0.20;;
69534;SDS011;56754;51.568;5.048;2022-09-27T03:44:21;3.50;;;0.20;;
69534;SDS011;56754;51.568;5.048;2022-09-27T03:46:46;1.73;;;0.20;;
69534;SDS011;56754;51.568;5.048;2022-09-27T03:49:11;2.53;;;0.30;;
69534;SDS011;56754;51.568;5.048;2022-09-27T03:51:36;3.17;;;0.30;;
69534;SDS011;56754;51.568;5.048;2022-09-27T03:54:02;2.70;;;0.30;;
69534;SDS011;56754;51.568;5.048;2022-09-27T03:56:27;1.73;;;0.30;;
69534;SDS011;56754;51.568;5.048;2022-09-27T03:58:53;4.57;;;0.57;;
69534;SDS011;56754;51.568;5.048;2022-09-27T04:01:18;2.17;;;0.10;;
69534;SDS011;56754;51.568;5.048;2022-09-27T04:03:43;0.82;;;0.10;;
69534;SDS011;56754;51.568;5.048;2022-09-27T04:06:09;1.00;;;0.17;;
69534;SDS011;56754;51.568;5.048;2022-09-27T04:08:34;2.67;;;0.40;;
69534;SDS011;56754;51.568;5.048;2022-09-27T04:10:59;1.47;;;0.17;;
69534;SDS011;56754;51.568;5.048;2022-09-27T04:13:24;0.47;;;0.10;;
69534;SDS011;56754;51.568;5.048;2022-09-27T04:15:50;4.47;;;0.20;;
69534;SDS011;56754;51.568;5.048;2022-09-27T04:18:15;1.50;;;0.10;;
69534;SDS011;56754;51.568;5.048;2022-09-27T04:20:40;2.10;;;0.20;;
69534;SDS011;56754;51.568;5.048;2022-09-27T04:23:05;3.23;;;0.30;;
69534;SDS011;56754;51.568;5.048;2022-09-27T04:25:31;4.00;;;0.30;;
69534;SDS011;56754;51.568;5.048;2022-09-27T04:27:56;2.47;;;0.10;;
69534;SDS011;56754;51.568;5.048;2022-09-27T04:30:22;1.67;;;0.15;;
69534;SDS011;56754;51.568;5.048;2022-09-27T04:32:48;1.43;;;0.20;;
69534;SDS011;56754;51.568;5.048;2022-09-27T04:35:13;3.00;;;0.30;;
69534;SDS011;56754;51.568;5.048;2022-09-27T04:37:39;1.92;;;0.10;;
69534;SDS011;56754;51.568;5.048;2022-09-27T04:40:04;2.93;;;0.20;;
69534;SDS011;56754;51.568;5.048;2022-09-27T04:42:29;2.03;;;0.10;;
69534;SDS011;56754;51.568;5.048;2022-09-27T04:44:55;2.23;;;0.30;;
69534;SDS011;56754;51.568;5.048;2022-09-27T04:47:20;1.77;;;0.17;;
69534;SDS011;56754;51.568;5.048;2022-09-27T04:49:47;2.60;;;0.10;;
69534;SDS011;56754;51.568;5.048;2022-09-27T04:52:12;0.97;;;0.10;;
69534;SDS011;56754;51.568;5.048;2022-09-27T04:54:37;1.67;;;0.20;;
69534;SDS011;56754;51.568;5.048;2022-09-27T04:57:02;1.83;;;0.20;;
69534;SDS011;56754;51.568;5.048;2022-09-27T04:59:28;1.97;;;0.20;;
69534;SDS011;56754;51.568;5.048;2022-09-27T05:01:53;3.23;;;0.20;;
69534;SDS011;56754;51.568;5.048;2022-09-27T05:04:18;2.77;;;0.30;;
69534;SDS011;56754;51.568;5.048;2022-09-27T05:06:44;2.30;;;0.20;;
69534;SDS011;56754;51.568;5.048;2022-09-27T05:09:09;2.37;;;0.20;;
69534;SDS011;56754;51.568;5.048;2022-09-27T05:11:34;2.03;;;0.30;;
69534;SDS011;56754;51.568;5.048;2022-09-27T05:13:59;0.77;;;0.20;;
69534;SDS011;56754;51.568;5.048;2022-09-27T05:16:25;2.30;;;0.30;;
69534;SDS011;56754;51.568;5.048;2022-09-27T05:18:50;2.60;;;0.30;;
69534;SDS011;56754;51.568;5.048;2022-09-27T05:21:15;2.13;;;0.20;;
69534;SDS011;56754;51.568;5.048;2022-09-27T05:23:41;0.73;;;0.10;;
69534;SDS011;56754;51.568;5.048;2022-09-27T05:26:06;2.22;;;0.20;;
69534;SDS011;56754;51.568;5.048;2022-09-27T05:28:32;1.87;;;0.10;;
69534;SDS011;56754;51.568;5.048;2022-09-27T05:30:57;1.50;;;0.10;;
69534;SDS011;56754;51.568;5.048;2022-09-27T05:33:22;3.77;;;0.20;;
69534;SDS011;56754;51.568;5.048;2022-09-27T05:35:54;1.80;;;0.25;;
69534;SDS011;56754;51.568;5.048;2022-09-27T05:38:21;1.90;;;0.23;;
69534;SDS011;56754;51.568;5.048;2022-09-27T05:40:47;2.30;;;0.30;;
69534;SDS011;56754;51.568;5.048;2022-09-27T05:43:13;1.77;;;0.20;;
69534;SDS011;56754;51.568;5.048;2022-09-27T05:45:38;1.43;;;0.20;;
69534;SDS011;56754;51.568;5.048;2022-09-27T05:48:03;1.35;;;0.20;;
69534;SDS011;56754;51.568;5.048;2022-09-27T05:50:29;2.63;;;0.20;;
69534;SDS011;56754;51.568;5.048;2022-09-27T05:52:55;1.48;;;0.10;;
69534;SDS011;56754;51.568;5.048;2022-09-27T05:55:20;1.87;;;0.10;;
69534;SDS011;56754;51.568;5.048;2022-09-27T05:57:55;1.47;;;0.10;;
69534;SDS011;56754;51.568;5.048;2022-09-27T06:00:26;1.30;;;0.38;;
69534;SDS011;56754;51.568;5.048;2022-09-27T06:02:56;1.67;;;0.10;;
69534;SDS011;56754;51.568;5.048;2022-09-27T06:05:23;1.13;;;0.10;;
69534;SDS011;56754;51.568;5.048;2022-09-27T06:07:49;1.03;;;0.20;;
69534;SDS011;56754;51.568;5.048;2022-09-27T06:10:15;1.00;;;0.20;;
69534;SDS011;56754;51.568;5.048;2022-09-27T06:12:41;1.60;;;0.30;;
69534;SDS011;56754;51.568;5.048;2022-09-27T06:15:07;1.07;;;0.10;;
69534;SDS011;56754;51.568;5.048;2022-09-27T06:17:33;1.03;;;0.10;;
69534;SDS011;56754;51.568;5.048;2022-09-27T06:19:59;1.58;;;0.10;;
69534;SDS011;56754;51.568;5.048;2022-09-27T06:22:24;1.57;;;0.30;;
69534;SDS011;56754;51.568;5.048;2022-09-27T06:24:49;1.80;;;0.27;;
69534;SDS011;56754;51.568;5.048;2022-09-27T06:27:15;0.77;;;0.10;;
69534;SDS011;56754;51.568;5.048;2022-09-27T06:29:40;2.10;;;0.20;;
69534;SDS011;56754;51.568;5.048;2022-09-27T06:32:05;3.83;;;0.30;;
69534;SDS011;56754;51.568;5.048;2022-09-27T06:34:30;1.07;;;0.10;;
69534;SDS011;56754;51.568;5.048;2022-09-27T06:36:55;2.53;;;0.40;;
69534;SDS011;56754;51.568;5.048;2022-09-27T06:39:21;1.00;;;0.20;;
69534;SDS011;56754;51.568;5.048;2022-09-27T06:41:46;2.30;;;0.20;;
69534;SDS011;56754;51.568;5.048;2022-09-27T06:44:11;1.10;;;0.20;;
69534;SDS011;56754;51.568;5.048;2022-09-27T06:46:37;2.30;;;0.20;;
69534;SDS011;56754;51.568;5.048;2022-09-27T06:49:02;2.77;;;0.30;;
69534;SDS011;56754;51.568;5.048;2022-09-27T06:51:27;2.70;;;0.20;;
69534;SDS011;56754;51.568;5.048;2022-09-27T06:53:52;1.87;;;0.30;;
69534;SDS011;56754;51.568;5.048;2022-09-27T06:56:18;2.10;;;0.20;;
69534;SDS011;56754;51.568;5.048;2022-09-27T06:58:43;2.40;;;0.40;;
69534;SDS011;56754;51.568;5.048;2022-09-27T07:01:08;1.87;;;0.30;;
69534;SDS011;56754;51.568;5.048;2022-09-27T07:03:34;1.75;;;0.30;;
69534;SDS011;56754;51.568;5.048;2022-09-27T07:06:00;1.27;;;0.23;;
69534;SDS011;56754;51.568;5.048;2022-09-27T07:08:27;2.72;;;0.22;;
69534;SDS011;56754;51.568;5.048;2022-09-27T07:10:54;1.70;;;0.40;;
69534;SDS011;56754;51.568;5.048;2022-09-27T07:13:20;4.45;;;0.40;;
69534;SDS011;56754;51.568;5.048;2022-09-27T07:15:46;1.75;;;0.30;;
69534;SDS011;56754;51.568;5.048;2022-09-27T07:18:12;3.00;;;0.50;;
69534;SDS011;56754;51.568;5.048;2022-09-27T07:20:37;2.07;;;0.40;;
69534;SDS011;56754;51.568;5.048;2022-09-27T07:23:03;1.43;;;0.40;;
69534;SDS011;56754;51.568;5.048;2022-09-27T07:25:29;2.20;;;0.50;;
69534;SDS011;56754;51.568;5.048;2022-09-27T07:27:59;2.92;;;0.63;;
69534;SDS011;56754;51.568;5.048;2022-09-27T07:30:28;1.85;;;0.50;;
69534;SDS011;56754;51.568;5.048;2022-09-27T07:32:58;2.23;;;0.57;;
69534;SDS011;56754;51.568;5.048;2022-09-27T07:35:24;4.60;;;1.10;;
69534;SDS011;56754;51.568;5.048;2022-09-27T07:37:50;2.63;;;0.75;;
69534;SDS011;56754;51.568;5.048;2022-09-27T07:40:15;3.67;;;1.10;;
69534;SDS011;56754;51.568;5.048;2022-09-27T07:42:41;2.47;;;0.60;;
69534;SDS011;56754;51.568;5.048;2022-09-27T07:45:07;2.27;;;0.50;;
69534;SDS011;56754;51.568;5.048;2022-09-27T07:47:33;2.90;;;0.70;;
69534;SDS011;56754;51.568;5.048;2022-09-27T07:49:58;2.15;;;0.70;;
69534;SDS011;56754;51.568;5.048;2022-09-27T07:52:24;3.27;;;0.60;;
69534;SDS011;56754;51.568;5.048;2022-09-27T07:54:49;3.43;;;1.20;;
69534;SDS011;56754;51.568;5.048;2022-09-27T07:57:14;2.73;;;0.70;;
69534;SDS011;56754;51.568;5.048;2022-09-27T07:59:40;3.93;;;0.90;;
69534;SDS011;56754;51.568;5.048;2022-09-27T08:02:06;3.42;;;0.80;;
69534;SDS011;56754;51.568;5.048;2022-09-27T08:04:37;3.08;;;1.02;;
69534;SDS011;56754;51.568;5.048;2022-09-27T08:07:02;4.10;;;1.90;;
69534;SDS011;56754;51.568;5.048;2022-09-27T08:09:27;3.53;;;0.97;;
69534;SDS011;56754;51.568;5.048;2022-09-27T08:11:54;2.27;;;0.80;;
69534;SDS011;56754;51.568;5.048;2022-09-27T08:14:20;2.47;;;0.70;;
69534;SDS011;56754;51.568;5.048;2022-09-27T08:16:46;2.67;;;0.80;;
69534;SDS011;56754;51.568;5.048;2022-09-27T08:19:11;4.30;;;1.13;;
69534;SDS011;56754;51.568;5.048;2022-09-27T08:21:36;2.33;;;0.80;;
69534;SDS011;56754;51.568;5.048;2022-09-27T08:24:01;3.57;;;0.90;;
69534;SDS011;56754;51.568;5.048;2022-09-27T08:26:27;2.80;;;0.80;;
69534;SDS011;56754;51.568;5.048;2022-09-27T08:28:52;3.90;;;1.20;;
69534;SDS011;56754;51.568;5.048;2022-09-27T08:31:18;2.60;;;0.90;;
69534;SDS011;56754;51.568;5.048;2022-09-27T08:33:47;3.27;;;1.07;;
69534;SDS011;56754;51.568;5.048;2022-09-27T08:36:13;3.57;;;0.90;;
69534;SDS011;56754;51.568;5.048;2022-09-27T08:38:39;3.97;;;1.43;;
69534;SDS011;56754;51.568;5.048;2022-09-27T08:41:08;3.60;;;1.00;;
69534;SDS011;56754;51.568;5.048;2022-09-27T08:44:15;3.23;;;1.20;;
69534;SDS011;56754;51.568;5.048;2022-09-27T08:49:19;4.25;;;1.17;;
69534;SDS011;56754;51.568;5.048;2022-09-27T08:51:50;4.15;;;1.27;;
69534;SDS011;56754;51.568;5.048;2022-09-27T08:54:20;3.53;;;1.30;;
69534;SDS011;56754;51.568;5.048;2022-09-27T08:56:49;3.97;;;1.60;;
69534;SDS011;56754;51.568;5.048;2022-09-27T08:59:17;4.82;;;1.30;;
69534;SDS011;56754;51.568;5.048;2022-09-27T09:01:47;3.67;;;1.10;;
69534;SDS011;56754;51.568;5.048;2022-09-27T09:04:35;4.40;;;1.25;;
69534;SDS011;56754;51.568;5.048;2022-09-27T09:25:49;4.00;;;1.00;;
69534;SDS011;56754;51.568;5.048;2022-09-27T09:31:05;2.58;;;0.90;;
69534;SDS011;56754;51.568;5.048;2022-09-27T09:33:40;3.88;;;1.15;;
69534;SDS011;56754;51.568;5.048;2022-09-27T09:39:17;4.18;;;1.00;;
69534;SDS011;56754;51.568;5.048;2022-09-27T09:41:53;3.05;;;0.82;;
69534;SDS011;56754;51.568;5.048;2022-09-27T09:44:54;2.97;;;0.73;;
69534;SDS011;56754;51.568;5.048;2022-09-27T09:47:41;3.13;;;0.90;;
69534;SDS011;56754;51.568;5.048;2022-09-27T09:50:24;2.80;;;0.80;;
69534;SDS011;56754;51.568;5.048;2022-09-27T09:52:56;2.65;;;0.70;;
69534;SDS011;56754;51.568;5.048;2022-09-27T09:55:29;2.53;;;0.70;;
69534;SDS011;56754;51.568;5.048;2022-09-27T10:00:28;2.25;;;0.65;;
69534;SDS011;56754;51.568;5.048;2022-09-27T10:02:54;3.33;;;0.80;;
69534;SDS011;56754;51.568;5.048;2022-09-27T10:05:23;2.53;;;0.70;;
69534;SDS011;56754;51.568;5.048;2022-09-27T10:07:51;1.58;;;0.52;;
69534;SDS011;56754;51.568;5.048;2022-09-27T10:10:21;3.08;;;0.70;;
69534;SDS011;56754;51.568;5.048;2022-09-27T10:12:47;3.43;;;0.67;;
69534;SDS011;56754;51.568;5.048;2022-09-27T10:15:18;2.42;;;0.70;;
69534;SDS011;56754;51.568;5.048;2022-09-27T10:17:49;2.65;;;0.50;;
69534;SDS011;56754;51.568;5.048;2022-09-27T10:20:20;2.28;;;0.60;;
69534;SDS011;56754;51.568;5.048;2022-09-27T10:22:48;2.00;;;0.57;;
69534;SDS011;56754;51.568;5.048;2022-09-27T10:25:18;2.90;;;0.77;;
69534;SDS011;56754;51.568;5.048;2022-09-27T10:27:48;3.08;;;0.60;;
69534;SDS011;56754;51.568;5.048;2022-09-27T10:30:29;2.63;;;0.83;;
69534;SDS011;56754;51.568;5.048;2022-09-27T10:32:57;2.20;;;0.40;;
69534;SDS011;56754;51.568;5.048;2022-09-27T10:37:53;1.98;;;0.47;;
69534;SDS011;56754;51.568;5.048;2022-09-27T10:40:28;2.57;;;0.50;;
69534;SDS011;56754;51.568;5.048;2022-09-27T10:42:55;2.00;;;0.40;;
69534;SDS011;56754;51.568;5.048;2022-09-27T10:45:30;3.07;;;0.50;;
69534;SDS011;56754;51.568;5.048;2022-09-27T10:48:00;1.90;;;0.45;;
69534;SDS011;56754;51.568;5.048;2022-09-27T10:50:27;2.78;;;0.55;;
69534;SDS011;56754;51.568;5.048;2022-09-27T10:55:49;2.22;;;0.50;;
69534;SDS011;56754;51.568;5.048;2022-09-27T10:58:26;1.17;;;0.20;;
69534;SDS011;56754;51.568;5.048;2022-09-27T11:01:03;2.25;;;0.25;;
69534;SDS011;56754;51.568;5.048;2022-09-27T11:03:32;2.67;;;0.30;;
69534;SDS011;56754;51.568;5.048;2022-09-27T11:06:17;2.03;;;0.50;;
69534;SDS011;56754;51.568;5.048;2022-09-27T11:08:49;1.42;;;0.30;;
69534;SDS011;56754;51.568;5.048;2022-09-27T11:13:59;1.90;;;0.40;;
69534;SDS011;56754;51.568;5.048;2022-09-27T11:18:59;1.33;;;0.20;;
69534;SDS011;56754;51.568;5.048;2022-09-27T11:26:58;1.58;;;0.30;;
69534;SDS011;56754;51.568;5.048;2022-09-27T11:32:29;1.60;;;0.37;;
69534;SDS011;56754;51.568;5.048;2022-09-27T11:43:08;2.03;;;0.20;;
69534;SDS011;56754;51.568;5.048;2022-09-27T11:57:27;2.65;;;0.40;;
69534;SDS011;56754;51.568;5.048;2022-09-27T12:10:36;2.93;;;0.20;;
69534;SDS011;56754;51.568;5.048;2022-09-27T12:13:07;4.55;;;0.40;;
69534;SDS011;56754;51.568;5.048;2022-09-27T12:15:38;3.80;;;0.40;;
69534;SDS011;56754;51.568;5.048;2022-09-27T12:18:15;1.65;;;0.20;;
69534;SDS011;56754;51.568;5.048;2022-09-27T12:20:50;3.40;;;0.40;;
69534;SDS011;56754;51.568;5.048;2022-09-27T12:23:21;3.50;;;0.45;;
69534;SDS011;56754;51.568;5.048;2022-09-27T12:25:51;1.50;;;0.30;;
69534;SDS011;56754;51.568;5.048;2022-09-27T12:31:05;2.25;;;0.20;;
69534;SDS011;56754;51.568;5.048;2022-09-27T12:33:41;2.42;;;0.40;;
69534;SDS011;56754;51.568;5.048;2022-09-27T12:36:14;1.95;;;0.30;;
69534;SDS011;56754;51.568;5.048;2022-09-27T12:38:53;3.72;;;0.60;;
69534;SDS011;56754;51.568;5.048;2022-09-27T12:41:26;2.13;;;0.30;;
69534;SDS011;56754;51.568;5.048;2022-09-27T12:43:56;4.30;;;0.63;;
69534;SDS011;56754;51.568;5.048;2022-09-27T12:52:13;3.13;;;0.50;;
69534;SDS011;56754;51.568;5.048;2022-09-27T12:54:55;3.33;;;0.43;;
69534;SDS011;56754;51.568;5.048;2022-09-27T12:57:43;4.30;;;0.50;;
69534;SDS011;56754;51.568;5.048;2022-09-27T13:14:19;5.93;;;1.35;;
69534;SDS011;56754;51.568;5.048;2022-09-27T13:16:48;6.03;;;1.00;;
69534;SDS011;56754;51.568;5.048;2022-09-27T13:22:06;5.65;;;0.50;;
69534;SDS011;56754;51.568;5.048;2022-09-27T13:27:01;4.63;;;0.60;;
69534;SDS011;56754;51.568;5.048;2022-09-27T13:29:47;3.92;;;0.43;;
69534;SDS011;56754;51.568;5.048;2022-09-27T13:32:14;2.20;;;0.50;;
69534;SDS011;56754;51.568;5.048;2022-09-27T13:34:47;5.40;;;0.60;;
69534;SDS011;56754;51.568;5.048;2022-09-27T13:37:25;2.40;;;0.47;;
69534;SDS011;56754;51.568;5.048;2022-09-27T13:42:39;3.47;;;0.60;;
69534;SDS011;56754;51.568;5.048;2022-09-27T13:45:20;3.53;;;0.50;;
69534;SDS011;56754;51.568;5.048;2022-09-27T13:47:48;2.25;;;0.25;;
69534;SDS011;56754;51.568;5.048;2022-09-27T13:50:24;4.28;;;0.40;;
69534;SDS011;56754;51.568;5.048;2022-09-27T13:53:03;2.05;;;0.22;;
69534;SDS011;56754;51.568;5.048;2022-09-27T13:55:48;2.33;;;0.20;;
69534;SDS011;56754;51.568;5.048;2022-09-27T14:00:43;3.33;;;0.40;;
69534;SDS011;56754;51.568;5.048;2022-09-27T14:05:38;2.27;;;0.30;;
69534;SDS011;56754;51.568;5.048;2022-09-27T14:08:06;6.55;;;0.70;;
69534;SDS011;56754;51.568;5.048;2022-09-27T14:10:51;3.70;;;0.57;;
69534;SDS011;56754;51.568;5.048;2022-09-27T14:13:18;2.95;;;0.50;;
69534;SDS011;56754;51.568;5.048;2022-09-27T14:15:46;4.07;;;0.70;;
69534;SDS011;56754;51.568;5.048;2022-09-27T14:18:12;2.22;;;0.47;;
69534;SDS011;56754;51.568;5.048;2022-09-27T14:20:38;2.47;;;0.40;;
69534;SDS011;56754;51.568;5.048;2022-09-27T14:23:12;1.98;;;0.50;;
69534;SDS011;56754;51.568;5.048;2022-09-27T14:25:45;2.33;;;0.30;;
69534;SDS011;56754;51.568;5.048;2022-09-27T14:30:43;2.40;;;0.40;;
69534;SDS011;56754;51.568;5.048;2022-09-27T14:33:24;2.67;;;0.40;;
69534;SDS011;56754;51.568;5.048;2022-09-27T14:35:54;2.78;;;0.40;;
69534;SDS011;56754;51.568;5.048;2022-09-27T14:38:19;2.20;;;0.40;;
69534;SDS011;56754;51.568;5.048;2022-09-27T14:43:17;3.05;;;0.28;;
69534;SDS011;56754;51.568;5.048;2022-09-27T14:45:44;3.47;;;0.50;;
69534;SDS011;56754;51.568;5.048;2022-09-27T14:48:26;1.90;;;0.30;;
69534;SDS011;56754;51.568;5.048;2022-09-27T14:50:57;2.83;;;0.30;;
69534;SDS011;56754;51.568;5.048;2022-09-27T14:53:25;3.70;;;0.47;;
69534;SDS011;56754;51.568;5.048;2022-09-27T14:55:52;2.85;;;0.30;;
69534;SDS011;56754;51.568;5.048;2022-09-27T14:58:17;4.23;;;0.40;;
69534;SDS011;56754;51.568;5.048;2022-09-27T15:00:44;3.97;;;0.40;;
69534;SDS011;56754;51.568;5.048;2022-09-27T15:03:11;2.35;;;0.40;;
69534;SDS011;56754;51.568;5.048;2022-09-27T15:06:08;2.67;;;0.50;;
69534;SDS011;56754;51.568;5.048;2022-09-27T15:08:34;3.60;;;0.43;;
69534;SDS011;56754;51.568;5.048;2022-09-27T15:11:03;2.28;;;0.30;;
69534;SDS011;56754;51.568;5.048;2022-09-27T15:13:29;3.42;;;0.30;;
69534;SDS011;56754;51.568;5.048;2022-09-27T15:15:56;3.13;;;0.50;;
69534;SDS011;56754;51.568;5.048;2022-09-27T15:21:02;4.65;;;0.55;;
69534;SDS011;56754;51.568;5.048;2022-09-27T15:23:29;3.72;;;0.32;;
69534;SDS011;56754;51.568;5.048;2022-09-27T15:28:34;2.72;;;0.30;;
69534;SDS011;56754;51.568;5.048;2022-09-27T15:31:00;1.80;;;0.30;;
69534;SDS011;56754;51.568;5.048;2022-09-27T15:33:28;1.73;;;0.23;;
69534;SDS011;56754;51.568;5.048;2022-09-27T15:35:56;3.17;;;0.40;;
69534;SDS011;56754;51.568;5.048;2022-09-27T15:41:12;1.50;;;0.30;;
69534;SDS011;56754;51.568;5.048;2022-09-27T15:43:43;1.67;;;0.20;;
69534;SDS011;56754;51.568;5.048;2022-09-27T15:46:26;1.92;;;0.30;;
69534;SDS011;56754;51.568;5.048;2022-09-27T15:49:39;1.70;;;0.30;;
69534;SDS011;56754;51.568;5.048;2022-09-27T15:51:42;2.08;;;0.30;;
69534;SDS011;56754;51.568;5.048;2022-09-27T15:54:09;1.63;;;0.20;;
69534;SDS011;56754;51.568;5.048;2022-09-27T15:56:35;2.37;;;0.30;;
69534;SDS011;56754;51.568;5.048;2022-09-27T15:59:01;1.02;;;0.20;;
69534;SDS011;56754;51.568;5.048;2022-09-27T16:01:27;2.58;;;0.45;;
69534;SDS011;56754;51.568;5.048;2022-09-27T16:03:52;2.17;;;0.30;;
69534;SDS011;56754;51.568;5.048;2022-09-27T16:06:18;3.47;;;0.20;;
69534;SDS011;56754;51.568;5.048;2022-09-27T16:08:43;3.00;;;0.43;;
69534;SDS011;56754;51.568;5.048;2022-09-27T16:11:08;2.13;;;0.30;;
69534;SDS011;56754;51.568;5.048;2022-09-27T16:13:39;2.25;;;0.30;;
69534;SDS011;56754;51.568;5.048;2022-09-27T16:16:05;2.00;;;0.37;;
69534;SDS011;56754;51.568;5.048;2022-09-27T16:18:30;2.90;;;0.40;;
69534;SDS011;56754;51.568;5.048;2022-09-27T16:20:56;1.70;;;0.30;;
69534;SDS011;56754;51.568;5.048;2022-09-27T16:23:22;2.37;;;0.40;;
69534;SDS011;56754;51.568;5.048;2022-09-27T16:25:47;1.70;;;0.30;;
69534;SDS011;56754;51.568;5.048;2022-09-27T16:28:12;2.40;;;0.40;;
69534;SDS011;56754;51.568;5.048;2022-09-27T16:30:38;1.20;;;0.20;;
69534;SDS011;56754;51.568;5.048;2022-09-27T16:33:03;2.13;;;0.40;;
69534;SDS011;56754;51.568;5.048;2022-09-27T16:35:28;3.13;;;0.30;;
69534;SDS011;56754;51.568;5.048;2022-09-27T16:37:54;2.83;;;0.40;;
69534;SDS011;56754;51.568;5.048;2022-09-27T16:40:19;2.58;;;0.30;;
69534;SDS011;56754;51.568;5.048;2022-09-27T16:42:47;2.53;;;0.30;;
69534;SDS011;56754;51.568;5.048;2022-09-27T16:45:13;1.97;;;0.40;;
69534;SDS011;56754;51.568;5.048;2022-09-27T16:47:39;2.55;;;0.32;;
69534;SDS011;56754;51.568;5.048;2022-09-27T16:50:04;2.00;;;0.33;;
69534;SDS011;56754;51.568;5.048;2022-09-27T16:52:30;3.50;;;0.43;;
69534;SDS011;56754;51.568;5.048;2022-09-27T16:54:56;4.07;;;0.40;;
69534;SDS011;56754;51.568;5.048;2022-09-27T16:57:21;2.67;;;0.40;;
69534;SDS011;56754;51.568;5.048;2022-09-27T16:59:46;3.53;;;0.80;;
69534;SDS011;56754;51.568;5.048;2022-09-27T17:02:11;3.73;;;0.90;;
69534;SDS011;56754;51.568;5.048;2022-09-27T17:04:37;5.23;;;0.80;;
69534;SDS011;56754;51.568;5.048;2022-09-27T17:07:02;3.90;;;0.60;;
69534;SDS011;56754;51.568;5.048;2022-09-27T17:09:27;2.17;;;0.60;;
69534;SDS011;56754;51.568;5.048;2022-09-27T17:11:52;3.80;;;0.50;;
69534;SDS011;56754;51.568;5.048;2022-09-27T17:14:18;2.67;;;0.60;;
69534;SDS011;56754;51.568;5.048;2022-09-27T17:16:43;4.30;;;0.67;;
69534;SDS011;56754;51.568;5.048;2022-09-27T17:19:10;3.33;;;0.47;;
69534;SDS011;56754;51.568;5.048;2022-09-27T17:21:35;3.78;;;0.60;;
69534;SDS011;56754;51.568;5.048;2022-09-27T17:24:01;3.07;;;0.50;;
69534;SDS011;56754;51.568;5.048;2022-09-27T17:26:27;3.10;;;0.50;;
69534;SDS011;56754;51.568;5.048;2022-09-27T17:28:52;2.80;;;0.50;;
69534;SDS011;56754;51.568;5.048;2022-09-27T17:31:17;3.73;;;0.70;;
69534;SDS011;56754;51.568;5.048;2022-09-27T17:33:44;2.83;;;0.40;;
69534;SDS011;56754;51.568;5.048;2022-09-27T17:36:12;2.83;;;0.45;;
69534;SDS011;56754;51.568;5.048;2022-09-27T17:38:39;3.07;;;0.60;;
69534;SDS011;56754;51.568;5.048;2022-09-27T17:41:06;3.33;;;0.75;;
69534;SDS011;56754;51.568;5.048;2022-09-27T17:43:33;4.20;;;0.60;;